Time;durP1;ratioP1;P1;durP2;ratioP2;P2;SDS_P1;SDS_P2;PMS_P1;PMS_P2;Temp;Humidity;BMP_temperature;BMP_pressure;BME280_temperature;BME280_humidity;BME280_pressure;Samples;Min_cycle;Max_cycle;Signal;HPM_P1;HPM_P2
2022/05/28 00:00:14;;;;;;;8.63;3.50;;;;;;;;;;6230352;23;20393;-92
2022/05/28 00:03:17;;;;;;;;;;;;;;;;;;;;;
2022/05/28 00:05:47;;;;;;;2.10;1.80;;;;;;;;;;6254197;23;20400;-93
2022/05/28 00:08:28;;;;;;;;;;;;;;;;;;;;;
2022/05/28 00:11:13;;;;;;;;;;;;;;;;;;;;;
2022/05/28 00:13:44;;;;;;;4.67;2.30;;;;;;;;;;6262263;23;20425;-93
2022/05/28 00:16:11;;;;;;;6.50;2.00;;;;;;;;;;6231874;23;20389;-93
2022/05/28 00:18:39;;;;;;;5.80;2.20;;;;;;;;;;6236357;23;20424;-93
2022/05/28 00:21:05;;;;;;;2.60;2.30;;;;;;;;;;6228495;23;20409;-93
2022/05/28 00:23:31;;;;;;;4.37;2.07;;;;;;;;;;6234109;23;20398;-93
2022/05/28 00:26:03;;;;;;;5.20;1.93;;;;;;;;;;6230891;23;20382;-92
2022/05/28 00:28:32;;;;;;;2.93;2.47;;;;;;;;;;6230354;22;20413;-93
2022/05/28 00:31:18;;;;;;;3.60;2.10;;;;;;;;;;6225995;23;20401;-94
2022/05/28 00:34:23;;;;;;;6.23;3.00;;;;;;;;;;6258157;23;20897;-93
2022/05/28 00:37:35;;;;;;;3.77;2.47;;;;;;;;;;6260324;23;20369;-92
2022/05/28 00:40:47;;;;;;;7.40;2.80;;;;;;;;;;6256267;23;20483;-92
2022/05/28 00:43:50;;;;;;;2.83;1.90;;;;;;;;;;6257621;23;20370;-93
2022/05/28 00:46:56;;;;;;;9.00;2.10;;;;;;;;;;6256863;23;20370;-93
2022/05/28 00:50:11;;;;;;;3.53;2.43;;;;;;;;;;6256224;23;20389;-92
2022/05/28 00:53:17;;;;;;;2.40;2.20;;;;;;;;;;6254141;23;20409;-93
2022/05/28 00:56:24;;;;;;;4.80;2.20;;;;;;;;;;6257515;23;20385;-93
2022/05/28 00:59:09;;;;;;;2.23;2.07;;;;;;;;;;6267273;22;20385;-93
2022/05/28 01:01:35;;;;;;;3.23;2.23;;;;;;;;;;6224136;23;20404;-93
2022/05/28 01:04:07;;;;;;;2.60;2.33;;;;;;;;;;6224677;23;20394;-93
2022/05/28 01:06:57;;;;;;;4.07;2.03;;;;;;;;;;6220637;23;20401;-93
2022/05/28 01:09:42;;;;;;;4.07;2.07;;;;;;;;;;6236274;23;20412;-94
2022/05/28 01:12:24;;;;;;;2.47;2.10;;;;;;;;;;6222008;23;20479;-90
2022/05/28 01:15:09;;;;;;;7.30;2.70;;;;;;;;;;6225010;23;20452;-94
2022/05/28 01:17:44;;;;;;;5.30;2.07;;;;;;;;;;6229711;23;20408;-94
2022/05/28 01:20:19;;;;;;;5.70;2.43;;;;;;;;;;6223433;23;20417;-94
2022/05/28 01:22:51;;;;;;;4.53;2.70;;;;;;;;;;6225150;23;20380;-93
2022/05/28 01:25:36;;;;;;;2.40;2.20;;;;;;;;;;6252637;23;20381;-93
2022/05/28 01:28:42;;;;;;;4.20;2.20;;;;;;;;;;6253407;23;20388;-94
2022/05/28 01:31:32;;;;;;;2.53;2.20;;;;;;;;;;6264618;22;20404;-93
2022/05/28 01:34:00;;;;;;;4.37;2.20;;;;;;;;;;6246037;23;20433;-94
2022/05/28 01:36:27;;;;;;;2.93;2.30;;;;;;;;;;6245966;23;20385;-93
2022/05/28 01:38:59;;;;;;;3.17;2.23;;;;;;;;;;6246640;22;20429;-94
2022/05/28 01:41:26;;;;;;;4.00;2.33;;;;;;;;;;6243828;23;20402;-92
2022/05/28 01:43:53;;;;;;;2.80;2.60;;;;;;;;;;6243501;23;20549;-91
2022/05/28 01:46:21;;;;;;;4.87;2.40;;;;;;;;;;6269233;23;20413;-94
2022/05/28 01:48:53;;;;;;;4.50;2.67;;;;;;;;;;6244464;23;20369;-93
2022/05/28 01:51:21;;;;;;;4.47;2.37;;;;;;;;;;6241185;23;20443;-92
2022/05/28 01:56:33;;;;;;;2.37;1.93;;;;;;;;;;6270290;23;20508;-93
2022/05/28 01:58:59;;;;;;;8.60;2.80;;;;;;;;;;6245005;23;20412;-93
2022/05/28 02:01:25;;;;;;;3.93;2.57;;;;;;;;;;6242354;23;20378;-94
2022/05/28 02:03:52;;;;;;;4.30;2.77;;;;;;;;;;6245741;22;20392;-94
2022/05/28 02:06:21;;;;;;;3.57;2.90;;;;;;;;;;6198946;23;20455;-93
2022/05/28 02:11:27;;;;;;;5.00;2.63;;;;;;;;;;6177378;22;20444;-93
2022/05/28 02:14:09;;;;;;;5.23;3.50;;;;;;;;;;6264949;23;20429;-94
2022/05/28 02:16:49;;;;;;;7.30;3.00;;;;;;;;;;6229731;23;20419;-93
2022/05/28 02:19:27;;;;;;;4.37;2.97;;;;;;;;;;6243043;23;20374;-93
2022/05/28 02:22:01;;;;;;;4.00;2.40;;;;;;;;;;6241723;23;20378;-94
2022/05/28 02:24:43;;;;;;;5.93;2.70;;;;;;;;;;6230152;23;20381;-93
2022/05/28 02:27:12;;;;;;;5.40;2.80;;;;;;;;;;6239330;23;20401;-95
2022/05/28 02:29:38;;;;;;;4.13;3.23;;;;;;;;;;6238237;23;20397;-95
2022/05/28 02:32:18;;;;;;;6.90;2.83;;;;;;;;;;6239341;23;20401;-95
2022/05/28 02:34:45;;;;;;;7.77;2.50;;;;;;;;;;6243893;23;20369;-95
2022/05/28 02:37:12;;;;;;;4.03;2.67;;;;;;;;;;6238632;23;20386;-94
2022/05/28 02:39:44;;;;;;;13.13;3.30;;;;;;;;;;6266313;23;20446;-94
2022/05/28 02:42:12;;;;;;;6.97;2.47;;;;;;;;;;6242476;23;20369;-94
2022/05/28 02:44:38;;;;;;;8.17;3.20;;;;;;;;;;6242634;23;20420;-94
2022/05/28 02:47:07;;;;;;;6.63;3.10;;;;;;;;;;6243713;23;20394;-93
2022/05/28 02:49:33;;;;;;;4.33;3.30;;;;;;;;;;6243358;23;20382;-94
2022/05/28 02:52:22;;;;;;;9.83;3.50;;;;;;;;;;6240625;23;20759;-93
2022/05/28 02:55:28;;;;;;;7.03;3.00;;;;;;;;;;6268904;23;20475;-94
2022/05/28 02:58:34;;;;;;;6.93;3.20;;;;;;;;;;6269455;22;20395;-93
2022/05/28 03:01:40;;;;;;;5.43;3.30;;;;;;;;;;6272910;22;20406;-92
2022/05/28 03:04:46;;;;;;;9.67;3.20;;;;;;;;;;6272379;23;20398;-92
2022/05/28 03:07:54;;;;;;;3.23;2.80;;;;;;;;;;6269485;22;20385;-93
2022/05/28 03:11:02;;;;;;;4.27;3.47;;;;;;;;;;6268105;23;20389;-92
2022/05/28 03:14:08;;;;;;;6.63;3.03;;;;;;;;;;6270274;23;20451;-94
2022/05/28 03:27:48;;;;;;;6.33;3.40;;;;;;;;;;6144953;23;20467;-93
2022/05/28 03:30:54;;;;;;;7.57;3.30;;;;;;;;;;6143581;23;20424;-93
2022/05/28 03:34:08;;;;;;;3.77;3.40;;;;;;;;;;6146172;22;20445;-92
2022/05/28 03:37:12;;;;;;;5.70;3.67;;;;;;;;;;6145379;23;20399;-92
2022/05/28 03:40:18;;;;;;;4.53;3.57;;;;;;;;;;6144984;22;20377;-92
2022/05/28 03:43:24;;;;;;;5.40;3.03;;;;;;;;;;6140901;23;20389;-93
2022/05/28 03:46:39;;;;;;;9.23;2.83;;;;;;;;;;6142972;23;20416;-92
2022/05/28 03:49:50;;;;;;;14.63;3.70;;;;;;;;;;6144146;23;20384;-93
2022/05/28 03:52:56;;;;;;;5.23;3.30;;;;;;;;;;6143416;23;20424;-94
2022/05/28 03:56:05;;;;;;;5.53;3.07;;;;;;;;;;6144936;23;20373;-93
2022/05/28 03:59:11;;;;;;;7.10;3.00;;;;;;;;;;6146112;23;20389;-93
2022/05/28 04:02:17;;;;;;;4.93;4.17;;;;;;;;;;6144675;23;20389;-94
2022/05/28 04:05:23;;;;;;;5.40;3.40;;;;;;;;;;6143364;23;20469;-93
2022/05/28 04:08:29;;;;;;;15.03;3.97;;;;;;;;;;6144879;23;20369;-92
2022/05/28 04:11:17;;;;;;;7.83;4.30;;;;;;;;;;6145594;23;20388;-94
2022/05/28 04:13:50;;;;;;;7.23;3.70;;;;;;;;;;6144677;23;20421;-93
2022/05/28 04:16:18;;;;;;;6.50;3.40;;;;;;;;;;6243443;23;20411;-92
2022/05/28 04:18:47;;;;;;;6.53;3.53;;;;;;;;;;6145322;23;20378;-93
2022/05/28 04:21:17;;;;;;;11.50;4.80;;;;;;;;;;6244503;23;20385;-92
2022/05/28 04:23:43;;;;;;;4.63;3.10;;;;;;;;;;6243525;23;20394;-93
2022/05/28 04:26:12;;;;;;;4.87;3.00;;;;;;;;;;6238376;23;20428;-93
2022/05/28 04:28:38;;;;;;;6.80;4.20;;;;;;;;;;6239624;23;20385;-93
2022/05/28 04:31:04;;;;;;;6.50;3.40;;;;;;;;;;6240297;23;20397;-94
2022/05/28 04:33:36;;;;;;;5.53;3.37;;;;;;;;;;6242172;23;20440;-92
2022/05/28 04:36:02;;;;;;;3.73;3.30;;;;;;;;;;6144312;23;20354;-93
2022/05/28 04:38:32;;;;;;;13.10;3.97;;;;;;;;;;6244140;23;20398;-90
2022/05/28 04:41:03;;;;;;;8.53;3.43;;;;;;;;;;6220956;22;20413;-94
2022/05/28 04:43:32;;;;;;;6.73;3.30;;;;;;;;;;6244125;23;20481;-93
2022/05/28 04:45:59;;;;;;;6.87;3.00;;;;;;;;;;6245096;23;20397;-92
2022/05/28 04:48:25;;;;;;;5.73;3.30;;;;;;;;;;6249122;22;20420;-93
2022/05/28 04:51:07;;;;;;;21.23;5.17;;;;;;;;;;6245909;23;20445;-94
2022/05/28 04:53:38;;;;;;;4.53;2.90;;;;;;;;;;6245823;23;20420;-93
2022/05/28 04:56:08;;;;;;;7.80;3.43;;;;;;;;;;6246467;22;20377;-91
2022/05/28 04:58:34;;;;;;;6.70;3.67;;;;;;;;;;6227265;23;20756;-90
2022/05/28 05:01:00;;;;;;;13.73;4.40;;;;;;;;;;6121090;23;20416;-92
2022/05/28 05:03:27;;;;;;;7.67;4.50;;;;;;;;;;6226271;23;20458;-90
2022/05/28 05:05:53;;;;;;;7.90;4.50;;;;;;;;;;6123104;23;20435;-91
2022/05/28 05:08:19;;;;;;;13.90;3.77;;;;;;;;;;6123574;23;20373;-91
2022/05/28 05:10:48;;;;;;;6.17;4.93;;;;;;;;;;6223858;23;20471;-91
2022/05/28 05:13:14;;;;;;;9.93;3.37;;;;;;;;;;6224795;23;20433;-91
2022/05/28 05:15:40;;;;;;;5.90;3.33;;;;;;;;;;6224681;23;20397;-92
2022/05/28 05:18:06;;;;;;;6.73;3.77;;;;;;;;;;6226535;23;20389;-91
2022/05/28 05:20:33;;;;;;;4.83;3.63;;;;;;;;;;6124391;23;20384;-92
2022/05/28 05:22:59;;;;;;;54.07;12.87;;;;;;;;;;6231536;23;20465;-91
2022/05/28 05:25:26;;;;;;;6.50;4.60;;;;;;;;;;6122673;23;21025;-92
2022/05/28 05:27:55;;;;;;;9.40;4.10;;;;;;;;;;6102044;23;20381;-91
2022/05/28 05:30:22;;;;;;;4.70;3.67;;;;;;;;;;6122462;23;20474;-91
2022/05/28 05:32:48;;;;;;;7.00;4.60;;;;;;;;;;6128661;23;20433;-91
2022/05/28 05:35:14;;;;;;;6.93;3.70;;;;;;;;;;6106116;23;20393;-90
2022/05/28 05:38:05;;;;;;;6.53;4.50;;;;;;;;;;6112270;23;20392;-90
2022/05/28 05:41:05;;;;;;;11.50;4.20;;;;;;;;;;6136702;23;20415;-91
2022/05/28 05:44:11;;;;;;;10.17;4.77;;;;;;;;;;6136924;23;20409;-91
2022/05/28 05:46:57;;;;;;;9.17;3.67;;;;;;;;;;6139172;23;20418;-92
2022/05/28 05:49:23;;;;;;;7.67;4.40;;;;;;;;;;6118000;23;20393;-91
2022/05/28 05:52:15;;;;;;;7.83;4.87;;;;;;;;;;6113065;23;20403;-90
2022/05/28 05:55:23;;;;;;;5.07;4.40;;;;;;;;;;6133163;23;20396;-91
2022/05/28 05:58:30;;;;;;;3.97;3.87;;;;;;;;;;6125643;23;20377;-92
2022/05/28 06:01:35;;;;;;;6.53;3.80;;;;;;;;;;6125093;23;20389;-91
2022/05/28 06:04:41;;;;;;;9.53;3.20;;;;;;;;;;6125424;23;20384;-93
2022/05/28 06:07:47;;;;;;;3.70;2.67;;;;;;;;;;6126407;23;20868;-91
2022/05/28 06:10:59;;;;;;;2.87;2.20;;;;;;;;;;6128332;23;20770;-92
2022/05/28 06:14:04;;;;;;;4.80;2.23;;;;;;;;;;6126959;23;20523;-93
2022/05/28 06:17:14;;;;;;;5.63;2.20;;;;;;;;;;6125175;22;20372;-93
2022/05/28 06:20:18;;;;;;;2.17;1.93;;;;;;;;;;6119892;23;20959;-92
2022/05/28 06:23:04;;;;;;;2.40;2.20;;;;;;;;;;6127117;23;21028;-92
2022/05/28 06:26:02;;;;;;;1.97;1.80;;;;;;;;;;6094210;23;20455;-92
2022/05/28 06:29:08;;;;;;;6.33;2.83;;;;;;;;;;6125814;23;20398;-93
2022/05/28 06:31:54;;;;;;;2.63;2.17;;;;;;;;;;6122128;23;20385;-93
2022/05/28 06:34:40;;;;;;;1.73;1.63;;;;;;;;;;6099234;23;20511;-93
2022/05/28 06:37:29;;;;;;;3.63;2.20;;;;;;;;;;6127293;23;20389;-93
2022/05/28 06:39:55;;;;;;;2.83;1.80;;;;;;;;;;6097491;23;20517;-92
2022/05/28 06:42:22;;;;;;;7.73;2.40;;;;;;;;;;6098413;23;20401;-92
2022/05/28 06:44:49;;;;;;;2.80;1.87;;;;;;;;;;6107203;23;20428;-93
2022/05/28 06:47:15;;;;;;;5.00;1.57;;;;;;;;;;6110537;23;20405;-88
2022/05/28 06:55:08;;;;;;;1.90;0.80;;;;;;;;;;6020703;23;20404;-94
2022/05/28 06:57:34;;;;;;;2.87;1.37;;;;;;;;;;6014801;23;20411;-92
2022/05/28 07:00:00;;;;;;;4.63;1.20;;;;;;;;;;6015147;23;20432;-94
2022/05/28 07:02:32;;;;;;;2.63;1.20;;;;;;;;;;6014533;23;20409;-93
2022/05/28 07:04:58;;;;;;;1.80;1.20;;;;;;;;;;6017996;23;20388;-94
2022/05/28 07:07:24;;;;;;;2.23;1.20;;;;;;;;;;6017946;23;20408;-93
2022/05/28 07:09:50;;;;;;;0.87;0.87;;;;;;;;;;6015150;23;20963;-90
2022/05/28 07:12:16;;;;;;;1.73;1.33;;;;;;;;;;6013599;23;20393;-90
2022/05/28 07:14:42;;;;;;;2.13;1.20;;;;;;;;;;6014707;23;20404;-91
2022/05/28 07:17:08;;;;;;;2.40;0.97;;;;;;;;;;6010233;23;20472;-92
2022/05/28 07:19:54;;;;;;;2.57;1.20;;;;;;;;;;6008557;23;20427;-93
2022/05/28 07:23:00;;;;;;;1.40;1.30;;;;;;;;;;6009310;23;20400;-90
2022/05/28 07:26:06;;;;;;;1.23;1.10;;;;;;;;;;6012902;23;20860;-93
2022/05/28 07:29:12;;;;;;;1.80;1.10;;;;;;;;;;6022714;23;20409;-90
2022/05/28 07:31:58;;;;;;;1.67;1.17;;;;;;;;;;6025007;23;20459;-93
2022/05/28 07:34:24;;;;;;;2.30;0.90;;;;;;;;;;5997556;23;20444;-92
2022/05/28 07:36:50;;;;;;;2.40;1.30;;;;;;;;;;5995546;23;20397;-92
2022/05/28 07:39:16;;;;;;;1.43;1.00;;;;;;;;;;5998326;23;20408;-91
2022/05/28 07:41:43;;;;;;;1.20;1.10;;;;;;;;;;5995003;23;20453;-90
2022/05/28 07:44:10;;;;;;;2.07;1.10;;;;;;;;;;5996617;23;20401;-92
2022/05/28 07:46:39;;;;;;;1.57;1.47;;;;;;;;;;5988642;23;20396;-94
2022/05/28 07:49:06;;;;;;;3.87;1.40;;;;;;;;;;5989465;23;20392;-94
2022/05/28 07:51:32;;;;;;;0.93;0.90;;;;;;;;;;5986136;23;20439;-88
2022/05/28 07:53:58;;;;;;;1.60;1.10;;;;;;;;;;6014395;23;20424;-93
2022/05/28 07:56:24;;;;;;;3.20;1.53;;;;;;;;;;5987815;23;20508;-94
2022/05/28 07:59:10;;;;;;;1.63;1.33;;;;;;;;;;5988293;23;20417;-94
2022/05/28 08:02:18;;;;;;;4.37;1.80;;;;;;;;;;6013883;23;20392;-92
2022/05/28 08:05:22;;;;;;;1.27;1.20;;;;;;;;;;6011218;23;20468;-91
2022/05/28 08:08:08;;;;;;;1.47;1.47;;;;;;;;;;6015767;23;20465;-92
2022/05/28 08:10:34;;;;;;;1.00;0.97;;;;;;;;;;6003130;23;20389;-93
2022/05/28 08:13:02;;;;;;;1.60;1.50;;;;;;;;;;6005526;23;20443;-91
2022/05/28 08:15:43;;;;;;;3.00;1.80;;;;;;;;;;6002380;23;20436;-86
2022/05/28 08:18:23;;;;;;;1.90;0.90;;;;;;;;;;6023493;23;20448;-93
2022/05/28 08:23:55;;;;;;;1.23;1.03;;;;;;;;;;6015331;23;20462;-93
2022/05/28 08:26:25;;;;;;;2.73;1.83;;;;;;;;;;6014728;23;20468;-93
2022/05/28 08:28:52;;;;;;;1.33;1.30;;;;;;;;;;6016233;23;20416;-92
2022/05/28 08:31:19;;;;;;;2.27;1.50;;;;;;;;;;6012361;23;20539;-92
2022/05/28 08:33:50;;;;;;;1.33;1.33;;;;;;;;;;6013766;23;20519;-92
2022/05/28 08:36:36;;;;;;;1.20;1.20;;;;;;;;;;6012500;23;20404;-91
2022/05/28 08:39:34;;;;;;;1.67;1.47;;;;;;;;;;6013952;23;20385;-92
2022/05/28 08:42:45;;;;;;;2.20;1.30;;;;;;;;;;6023963;23;20397;-92
2022/05/28 08:45:32;;;;;;;2.47;1.33;;;;;;;;;;6017750;23;20393;-89
2022/05/28 08:48:08;;;;;;;7.90;4.67;;;;;;;;;;6012956;23;20434;-91
2022/05/28 08:53:35;;;;;;;1.47;1.40;;;;;;;;;;6064449;22;20462;-93
2022/05/28 08:56:04;;;;;;;2.87;1.30;;;;;;;;;;6076969;23;20914;-92
2022/05/28 09:09:42;;;;;;;1.60;1.47;;;;;;;;;;6083936;23;20537;-95
2022/05/28 09:12:46;;;;;;;2.23;1.20;;;;;;;;;;6088860;23;20446;-94
2022/05/28 09:15:51;;;;;;;2.13;1.30;;;;;;;;;;6089432;23;20497;-95
2022/05/28 09:18:57;;;;;;;1.30;1.30;;;;;;;;;;6083880;23;20395;-91
2022/05/28 09:21:50;;;;;;;1.10;1.00;;;;;;;;;;6079676;23;20387;-91
2022/05/28 09:24:45;;;;;;;1.90;1.80;;;;;;;;;;6054235;23;20403;-90
2022/05/28 09:27:42;;;;;;;1.70;1.10;;;;;;;;;;6083377;23;20419;-90
2022/05/28 09:30:54;;;;;;;1.77;1.67;;;;;;;;;;6081908;23;20406;-93
2022/05/28 09:33:40;;;;;;;1.67;1.47;;;;;;;;;;6074420;23;20500;-92
2022/05/28 09:36:47;;;;;;;1.37;1.27;;;;;;;;;;6077689;23;20469;-94
2022/05/28 09:39:44;;;;;;;1.30;1.20;;;;;;;;;;6078135;23;20851;-94
2022/05/28 09:42:45;;;;;;;1.47;1.20;;;;;;;;;;6074843;23;20409;-94
2022/05/28 09:45:31;;;;;;;1.67;1.40;;;;;;;;;;6080938;23;20386;-94
2022/05/28 09:48:40;;;;;;;2.33;1.50;;;;;;;;;;6080850;23;20386;-94
2022/05/28 09:51:47;;;;;;;5.00;1.80;;;;;;;;;;6083311;23;20387;-93
2022/05/28 09:54:34;;;;;;;1.47;1.37;;;;;;;;;;6085294;23;20458;-96
2022/05/28 09:57:09;;;;;;;1.57;1.47;;;;;;;;;;6061998;23;20422;-92
2022/05/28 09:59:46;;;;;;;4.80;2.97;;;;;;;;;;6060789;23;20385;-92
2022/05/28 10:02:26;;;;;;;3.00;1.47;;;;;;;;;;6058526;23;20383;-92
2022/05/28 10:05:20;;;;;;;2.13;1.93;;;;;;;;;;6059536;23;20813;-93
2022/05/28 10:07:53;;;;;;;6.27;1.70;;;;;;;;;;6059727;23;20418;-93
2022/05/28 10:10:30;;;;;;;1.70;1.20;;;;;;;;;;6059554;23;20391;-93
2022/05/28 10:13:31;;;;;;;4.03;1.27;;;;;;;;;;6059334;23;20446;-92
2022/05/28 10:16:46;;;;;;;2.03;1.37;;;;;;;;;;6082206;23;20405;-94
2022/05/28 10:19:53;;;;;;;3.10;1.43;;;;;;;;;;6082761;23;20388;-93
2022/05/28 10:22:52;;;;;;;1.90;1.47;;;;;;;;;;6083741;23;20410;-91
2022/05/28 10:25:58;;;;;;;1.83;1.57;;;;;;;;;;6085735;23;20382;-94
2022/05/28 10:29:07;;;;;;;1.87;1.43;;;;;;;;;;6082963;23;20390;-92
2022/05/28 10:32:16;;;;;;;1.43;1.43;;;;;;;;;;6082548;23;20379;-92
2022/05/28 10:35:22;;;;;;;1.63;1.57;;;;;;;;;;6081989;23;20384;-92
2022/05/28 10:38:37;;;;;;;1.90;1.80;;;;;;;;;;6079205;23;20390;-92
2022/05/28 10:41:29;;;;;;;1.90;1.80;;;;;;;;;;6076195;23;20398;-91
2022/05/28 10:44:30;;;;;;;1.67;1.60;;;;;;;;;;6074066;23;20375;-93
2022/05/28 10:47:56;;;;;;;6.77;1.97;;;;;;;;;;6075103;22;20488;-92
2022/05/28 10:51:11;;;;;;;1.70;1.60;;;;;;;;;;6019252;23;20389;-93
2022/05/28 10:53:55;;;;;;;5.40;2.20;;;;;;;;;;6021737;23;20472;-95
2022/05/28 10:57:03;;;;;;;2.90;2.10;;;;;;;;;;6019621;23;20387;-95
2022/05/28 11:00:07;;;;;;;3.17;1.70;;;;;;;;;;6064796;23;20939;-89
2022/05/28 11:03:14;;;;;;;2.40;1.70;;;;;;;;;;6059928;23;20399;-88
2022/05/28 11:06:16;;;;;;;3.00;2.10;;;;;;;;;;6059064;23;20484;-91
2022/05/28 11:09:29;;;;;;;4.43;2.17;;;;;;;;;;6069773;23;20475;-90
2022/05/28 11:12:34;;;;;;;4.37;4.07;;;;;;;;;;6055112;23;20387;-90
2022/05/28 11:15:41;;;;;;;1.83;1.73;;;;;;;;;;6064520;23;20394;-89
2022/05/28 11:18:42;;;;;;;2.93;1.80;;;;;;;;;;6065329;23;20391;-90
2022/05/28 11:21:51;;;;;;;5.40;5.00;;;;;;;;;;6060953;23;20395;-90
2022/05/28 11:25:05;;;;;;;2.20;1.60;;;;;;;;;;6063035;23;20414;-91
2022/05/28 11:27:48;;;;;;;3.80;1.13;;;;;;;;;;6059769;23;20394;-89
2022/05/28 11:30:54;;;;;;;1.60;1.50;;;;;;;;;;6063557;23;20422;-91
2022/05/28 11:34:00;;;;;;;3.10;2.30;;;;;;;;;;6065885;23;21214;-88
2022/05/28 11:37:15;;;;;;;1.80;1.70;;;;;;;;;;6063531;23;20384;-91
2022/05/28 11:40:25;;;;;;;1.60;1.50;;;;;;;;;;6067215;23;20482;-90
2022/05/28 11:43:33;;;;;;;2.50;1.83;;;;;;;;;;6065012;23;20474;-90
2022/05/28 11:46:45;;;;;;;4.60;2.17;;;;;;;;;;6064510;23;20431;-90
2022/05/28 11:53:09;;;;;;;3.50;2.30;;;;;;;;;;6062388;23;20836;-89
2022/05/28 11:56:15;;;;;;;2.53;1.97;;;;;;;;;;6064237;23;20522;-90
2022/05/28 11:59:32;;;;;;;4.00;1.63;;;;;;;;;;6064873;23;20402;-91
2022/05/28 12:02:38;;;;;;;2.30;2.10;;;;;;;;;;6063097;23;20406;-92
2022/05/28 12:05:44;;;;;;;5.10;2.27;;;;;;;;;;6062261;23;20505;-90
2022/05/28 12:08:39;;;;;;;5.30;2.30;;;;;;;;;;6070312;23;20383;-90
2022/05/28 12:11:13;;;;;;;3.53;1.77;;;;;;;;;;6035704;23;20395;-91
2022/05/28 12:13:43;;;;;;;2.90;2.30;;;;;;;;;;6058701;23;20517;-89
2022/05/28 12:16:25;;;;;;;4.07;2.20;;;;;;;;;;6035183;23;20727;-89
2022/05/28 12:19:10;;;;;;;2.10;1.53;;;;;;;;;;6035596;23;20383;-90
2022/05/28 12:22:16;;;;;;;3.60;1.93;;;;;;;;;;6053141;23;20723;-87
2022/05/28 12:25:22;;;;;;;1.70;1.50;;;;;;;;;;6059673;23;20946;-89
2022/05/28 12:28:29;;;;;;;2.80;2.47;;;;;;;;;;6066716;23;20452;-89
2022/05/28 12:31:43;;;;;;;2.47;1.50;;;;;;;;;;6067560;23;20389;-92
2022/05/28 12:34:49;;;;;;;1.90;1.80;;;;;;;;;;6064383;23;20450;-89
2022/05/28 12:37:34;;;;;;;4.47;1.47;;;;;;;;;;6062902;23;20492;-90
2022/05/28 12:40:46;;;;;;;2.10;1.90;;;;;;;;;;6073572;23;20493;-91
2022/05/28 12:43:55;;;;;;;2.67;2.47;;;;;;;;;;6068165;23;20410;-90
2022/05/28 12:46:50;;;;;;;3.70;1.70;;;;;;;;;;6069797;23;20427;-90
2022/05/28 12:49:38;;;;;;;2.60;1.70;;;;;;;;;;6041415;23;20470;-89
2022/05/28 12:52:04;;;;;;;2.70;1.70;;;;;;;;;;6071628;23;20367;-87
2022/05/28 12:54:50;;;;;;;2.53;2.33;;;;;;;;;;6045961;23;20443;-89
2022/05/28 12:57:34;;;;;;;1.97;1.87;;;;;;;;;;6075878;23;20422;-86
2022/05/28 13:00:04;;;;;;;3.70;2.37;;;;;;;;;;6045727;23;20423;-90
2022/05/28 13:02:50;;;;;;;5.93;2.37;;;;;;;;;;6048640;23;20387;-91
2022/05/28 13:05:35;;;;;;;1.67;1.00;;;;;;;;;;6066443;23;20379;-86
2022/05/28 13:08:06;;;;;;;1.73;1.60;;;;;;;;;;6038815;23;20735;-88
2022/05/28 13:10:32;;;;;;;2.10;1.70;;;;;;;;;;6043540;23;20395;-89
2022/05/28 13:12:58;;;;;;;4.23;3.93;;;;;;;;;;6037741;23;20438;-90
2022/05/28 13:15:31;;;;;;;1.80;1.30;;;;;;;;;;6038656;23;20391;-89
2022/05/28 13:18:17;;;;;;;3.73;1.77;;;;;;;;;;6072992;23;20454;-87
2022/05/28 13:21:06;;;;;;;1.97;1.80;;;;;;;;;;6073580;23;20371;-90
2022/05/28 13:23:40;;;;;;;2.63;2.43;;;;;;;;;;6056463;23;20411;-90
2022/05/28 13:26:42;;;;;;;4.97;1.97;;;;;;;;;;6073931;23;20367;-88
2022/05/28 13:29:47;;;;;;;2.90;2.20;;;;;;;;;;6074151;23;20410;-89
2022/05/28 13:32:42;;;;;;;2.27;2.07;;;;;;;;;;6065593;23;20406;-91
2022/05/28 13:35:38;;;;;;;1.83;1.73;;;;;;;;;;6069053;23;20399;-88
2022/05/28 13:38:04;;;;;;;2.40;2.27;;;;;;;;;;6041882;23;20395;-86
2022/05/28 13:40:31;;;;;;;6.10;2.20;;;;;;;;;;6066645;23;20414;-89
2022/05/28 13:43:03;;;;;;;3.40;2.30;;;;;;;;;;6040050;23;20772;-89
2022/05/28 13:45:37;;;;;;;3.77;1.90;;;;;;;;;;6039982;23;20403;-88
2022/05/28 13:48:26;;;;;;;7.07;2.00;;;;;;;;;;6038792;23;20957;-88
2022/05/28 13:51:31;;;;;;;3.10;1.93;;;;;;;;;;6064941;23;20940;-89
2022/05/28 13:54:37;;;;;;;4.27;2.00;;;;;;;;;;6066249;23;20438;-90
2022/05/28 13:57:45;;;;;;;2.93;1.90;;;;;;;;;;6065305;23;20696;-87
2022/05/28 14:00:50;;;;;;;3.20;2.20;;;;;;;;;;6064330;23;20387;-90
2022/05/28 14:03:56;;;;;;;3.47;2.00;;;;;;;;;;6063663;23;20988;-87
2022/05/28 14:07:02;;;;;;;2.50;1.60;;;;;;;;;;6065554;23;20794;-89
2022/05/28 14:09:55;;;;;;;2.37;1.80;;;;;;;;;;6064625;23;20994;-89
2022/05/28 14:12:50;;;;;;;3.20;2.00;;;;;;;;;;6039564;23;20375;-89
2022/05/28 14:15:53;;;;;;;3.87;1.90;;;;;;;;;;6062193;23;20445;-90
2022/05/28 14:19:02;;;;;;;1.83;1.83;;;;;;;;;;6056762;23;20454;-88
2022/05/28 14:22:08;;;;;;;2.73;2.50;;;;;;;;;;6059627;23;20387;-89
2022/05/28 14:25:14;;;;;;;2.60;1.80;;;;;;;;;;6061473;23;20402;-87
2022/05/28 14:28:20;;;;;;;2.87;2.03;;;;;;;;;;6059175;23;20391;-86
2022/05/28 14:31:26;;;;;;;3.33;1.70;;;;;;;;;;6064908;23;20470;-90
2022/05/28 14:34:32;;;;;;;2.20;1.97;;;;;;;;;;6071376;23;20434;-91
2022/05/28 14:37:47;;;;;;;3.13;1.77;;;;;;;;;;6073223;23;20378;-90
2022/05/28 14:40:53;;;;;;;3.10;1.73;;;;;;;;;;6070053;23;20387;-92
2022/05/28 14:43:59;;;;;;;2.43;2.13;;;;;;;;;;6066365;23;20387;-90
2022/05/28 14:47:04;;;;;;;3.03;1.73;;;;;;;;;;6071048;23;20419;-90
2022/05/28 14:50:14;;;;;;;2.87;1.80;;;;;;;;;;6063811;23;20473;-89
2022/05/28 14:53:21;;;;;;;1.60;1.50;;;;;;;;;;6065521;23;20477;-89
2022/05/28 14:56:30;;;;;;;1.87;1.77;;;;;;;;;;6069789;23;20391;-88
2022/05/28 14:59:39;;;;;;;2.73;1.57;;;;;;;;;;6069263;23;20890;-90
2022/05/28 15:02:25;;;;;;;5.10;1.80;;;;;;;;;;6070880;23;20393;-90
2022/05/28 15:05:31;;;;;;;2.87;2.40;;;;;;;;;;6068864;23;20462;-89
2022/05/28 15:08:40;;;;;;;2.37;1.80;;;;;;;;;;6077970;23;20391;-89
2022/05/28 15:11:36;;;;;;;2.30;2.03;;;;;;;;;;6072140;23;20379;-91
2022/05/28 15:14:13;;;;;;;3.37;1.67;;;;;;;;;;6052373;23;20465;-88
2022/05/28 15:16:41;;;;;;;2.00;1.90;;;;;;;;;;6048518;23;20406;-91
2022/05/28 15:19:07;;;;;;;2.80;2.60;;;;;;;;;;6047144;23;20379;-92
2022/05/28 15:21:36;;;;;;;2.03;1.60;;;;;;;;;;6047073;23;20473;-90
2022/05/28 15:24:22;;;;;;;2.37;2.07;;;;;;;;;;6069404;23;20362;-90
2022/05/28 15:27:28;;;;;;;2.80;1.73;;;;;;;;;;6066992;23;20756;-90
2022/05/28 15:30:34;;;;;;;2.60;2.33;;;;;;;;;;6069784;23;20448;-92
2022/05/28 15:33:43;;;;;;;3.43;2.07;;;;;;;;;;6074604;23;20522;-92
2022/05/28 15:39:51;;;;;;;6.90;1.93;;;;;;;;;;6129787;23;20460;-88
2022/05/28 15:42:27;;;;;;;7.90;1.60;;;;;;;;;;6079985;23;20409;-91
2022/05/28 15:44:56;;;;;;;1.57;1.50;;;;;;;;;;6069316;23;20367;-89
2022/05/28 15:47:42;;;;;;;1.47;1.47;;;;;;;;;;6044111;23;20464;-89
2022/05/28 15:50:48;;;;;;;1.63;1.53;;;;;;;;;;6070957;23;20554;-88
2022/05/28 15:53:54;;;;;;;1.90;1.40;;;;;;;;;;6079883;23;20847;-90
2022/05/28 15:57:01;;;;;;;2.07;1.30;;;;;;;;;;6082209;23;20402;-89
2022/05/28 16:00:06;;;;;;;1.73;1.50;;;;;;;;;;6082480;23;20402;-91
2022/05/28 16:03:11;;;;;;;3.13;2.93;;;;;;;;;;6083273;23;20395;-89
2022/05/28 16:06:17;;;;;;;1.50;1.30;;;;;;;;;;6084809;23;20409;-90
2022/05/28 16:09:26;;;;;;;1.70;1.60;;;;;;;;;;6084202;23;20411;-89
2022/05/28 16:12:32;;;;;;;4.33;2.90;;;;;;;;;;6074142;23;20425;-88
2022/05/28 16:15:38;;;;;;;1.90;1.77;;;;;;;;;;6074306;23;20398;-89
2022/05/28 16:18:44;;;;;;;6.40;3.13;;;;;;;;;;6075640;23;20458;-88
2022/05/28 16:21:50;;;;;;;2.50;2.23;;;;;;;;;;6076087;23;20395;-89
2022/05/28 16:24:55;;;;;;;1.33;1.20;;;;;;;;;;6068558;23;20387;-88
2022/05/28 16:28:03;;;;;;;1.90;1.80;;;;;;;;;;6072724;23;20386;-91
2022/05/28 16:31:09;;;;;;;3.67;2.30;;;;;;;;;;6074602;23;20411;-88
2022/05/28 16:34:18;;;;;;;2.40;2.30;;;;;;;;;;6077932;23;20431;-88
2022/05/28 16:37:24;;;;;;;4.20;1.50;;;;;;;;;;6073741;23;20398;-90
2022/05/28 16:40:10;;;;;;;2.00;1.77;;;;;;;;;;6078782;23;20398;-91
2022/05/28 16:42:37;;;;;;;2.07;1.97;;;;;;;;;;6052076;23;20446;-90
2022/05/28 16:45:07;;;;;;;4.67;2.30;;;;;;;;;;6051844;23;20433;-92
2022/05/28 16:47:33;;;;;;;5.47;2.27;;;;;;;;;;6052784;23;20434;-88
2022/05/28 16:50:02;;;;;;;2.43;2.30;;;;;;;;;;6055373;23;20421;-87
2022/05/28 16:52:48;;;;;;;1.70;1.60;;;;;;;;;;6054089;23;20454;-91
2022/05/28 16:55:55;;;;;;;3.13;2.10;;;;;;;;;;6077981;23;20391;-89
2022/05/28 16:58:49;;;;;;;2.03;1.70;;;;;;;;;;6074681;23;20774;-90
2022/05/28 17:01:16;;;;;;;2.73;2.00;;;;;;;;;;6048677;23;20428;-90
2022/05/28 17:03:58;;;;;;;;;;;;;;;;;;;;;
2022/05/28 17:06:24;;;;;;;2.20;2.10;;;;;;;;;;6075742;23;20359;-91
2022/05/28 17:08:51;;;;;;;4.03;2.00;;;;;;;;;;6050094;23;20406;-92
2022/05/28 17:11:18;;;;;;;4.73;2.60;;;;;;;;;;6050657;23;20510;-92
2022/05/28 17:13:45;;;;;;;2.47;2.27;;;;;;;;;;6047266;23;20500;-93
2022/05/28 17:16:11;;;;;;;2.53;2.23;;;;;;;;;;6042888;23;20466;-91
2022/05/28 17:18:37;;;;;;;1.97;1.77;;;;;;;;;;6043632;23;20387;-90
2022/05/28 17:21:21;;;;;;;3.03;2.83;;;;;;;;;;6050587;23;20406;-90
2022/05/28 17:23:49;;;;;;;2.63;2.43;;;;;;;;;;6008327;23;20591;-92
2022/05/28 17:26:41;;;;;;;2.67;2.57;;;;;;;;;;6056741;23;20403;-93
2022/05/28 17:29:25;;;;;;;3.03;1.90;;;;;;;;;;6071672;23;20423;-91
2022/05/28 17:31:56;;;;;;;2.20;1.83;;;;;;;;;;6080430;23;20165;-94